Time;durP1;ratioP1;P1;durP2;ratioP2;P2;SDS_P1;SDS_P2;PMS_P1;PMS_P2;Temp;Humidity;BMP_temperature;BMP_pressure;BME280_temperature;BME280_humidity;BME280_pressure;Samples;Min_cycle;Max_cycle;Signal;HPM_P1;HPM_P2
2023/08/23 00:00:39;;;;;;;;;1.00;1.00;;;;;23.19;67.83;101891.84;5081811;27;45475;-73
2023/08/23 00:03:04;;;;;;;;;1.00;1.00;;;;;23.20;69.16;101880.03;5084988;27;45804;-74
2023/08/23 00:05:29;;;;;;;;;0.00;0.00;;;;;23.12;70.22;101870.88;5087149;27;53583;-74
2023/08/23 00:07:55;;;;;;;;;1.00;1.00;;;;;23.02;69.42;101853.72;5079992;27;46197;-74
2023/08/23 00:10:20;;;;;;;;;2.00;2.00;;;;;23.15;70.00;101868.78;5096999;27;45335;-73
2023/08/23 00:12:45;;;;;;;;;2.00;1.00;;;;;23.03;67.72;101852.75;5094105;27;45921;-73
2023/08/23 00:15:11;;;;;;;;;0.33;0.33;;;;;23.08;67.67;101872.09;5087723;27;45219;-74
2023/08/23 00:17:36;;;;;;;;;1.00;1.00;;;;;23.03;67.97;101867.09;5083152;27;45852;-73
2023/08/23 00:20:02;;;;;;;;;0.00;0.00;;;;;22.89;70.77;101843.09;5083681;27;46480;-74
2023/08/23 00:22:27;;;;;;;;;1.00;1.00;;;;;23.01;68.85;101866.34;5080405;27;45499;-74
2023/08/23 00:24:52;;;;;;;;;0.00;0.00;;;;;22.97;67.91;101864.06;5079809;27;45422;-74
2023/08/23 00:27:17;;;;;;;;;0.00;0.00;;;;;22.89;69.82;101844.91;5082135;27;45410;-73
2023/08/23 00:29:43;;;;;;;;;2.00;0.33;;;;;22.88;69.39;101852.16;5080063;27;45280;-74
2023/08/23 00:32:08;;;;;;;;;1.00;1.00;;;;;22.91;68.96;101853.72;5098383;27;45510;-74
2023/08/23 00:34:33;;;;;;;;;1.00;0.00;;;;;22.83;69.30;101844.47;5080570;27;50425;-74
2023/08/23 00:36:59;;;;;;;;;1.00;1.00;;;;;22.84;69.25;101848.84;5084583;27;45390;-74
2023/08/23 00:39:24;;;;;;;;;1.00;1.00;;;;;22.72;68.83;101832.81;5080752;27;45386;-74
2023/08/23 00:41:49;;;;;;;;;0.00;0.00;;;;;22.71;70.01;101823.84;5082901;27;45268;-74
2023/08/23 00:44:15;;;;;;;;;1.00;1.00;;;;;22.79;70.07;101840.28;5091661;27;45474;-74
2023/08/23 00:46:40;;;;;;;;;1.00;1.00;;;;;22.71;70.75;101825.69;5079115;27;46345;-75
2023/08/23 00:49:07;;;;;;;;;0.00;0.00;;;;;22.72;71.34;101828.28;5092879;27;45410;-74
2023/08/23 00:51:33;;;;;;;;;3.00;0.00;;;;;22.61;71.89;101816.63;5090337;27;45499;-75
2023/08/23 00:53:58;;;;;;;;;1.00;1.00;;;;;22.65;72.10;101820.78;5088501;27;45673;-74
2023/08/23 00:56:24;;;;;;;;;0.00;0.00;;;;;22.64;70.61;101829.88;5088029;27;46123;-74
2023/08/23 00:58:50;;;;;;;;;0.00;0.00;;;;;22.59;71.73;101816.75;5078760;27;45405;-74
2023/08/23 01:01:15;;;;;;;;;1.00;1.00;;;;;22.59;73.15;101826.66;5079965;27;45789;-74
2023/08/23 01:03:41;;;;;;;;;0.00;0.00;;;;;22.55;72.25;101826.06;5079392;27;45494;-74
2023/08/23 01:06:26;;;;;;;;;1.33;1.33;;;;;22.49;69.28;101817.63;5079024;27;46470;-74
2023/08/23 01:09:29;;;;;;;;;0.00;0.00;;;;;22.47;72.11;101819.59;5079063;28;45379;-74
2023/08/23 01:12:10;;;;;;;;;0.33;0.00;;;;;22.44;70.50;101825.22;5082757;27;45493;-74
2023/08/23 01:14:42;;;;;;;;;0.33;0.33;;;;;22.43;73.11;101826.19;5083306;27;45550;-74
2023/08/23 01:17:08;;;;;;;;;0.00;0.00;;;;;22.40;70.55;101816.53;5096359;27;45414;-74
2023/08/23 01:19:45;;;;;;;;;1.00;1.00;;;;;22.29;70.13;101808.44;5085601;27;45319;-74
2023/08/23 01:22:16;;;;;;;;;1.00;1.00;;;;;22.36;70.42;101819.59;5075855;27;45521;-73
2023/08/23 01:24:41;;;;;;;;;0.00;0.00;;;;;22.38;72.14;101818.50;5095419;27;45216;-74
2023/08/23 01:27:07;;;;;;;;;2.67;0.00;;;;;22.26;73.37;101808.69;5078978;28;46020;-74
2023/08/23 01:29:32;;;;;;;;;0.00;0.00;;;;;22.31;72.95;101823.53;5080849;27;45333;-74
2023/08/23 01:32:14;;;;;;;;;0.00;0.00;;;;;22.27;74.35;101819.34;5082436;27;45327;-74
2023/08/23 01:34:46;;;;;;;;;1.00;1.00;;;;;22.17;73.23;101812.13;5087975;27;45379;-74
2023/08/23 01:37:12;;;;;;;;;0.00;0.00;;;;;22.12;72.75;101809.78;5092547;27;45413;-74
2023/08/23 01:39:39;;;;;;;;;0.00;0.00;;;;;22.13;74.67;101810.63;5082089;27;45369;-74
2023/08/23 01:42:05;;;;;;;;;0.00;0.00;;;;;22.08;73.83;101819.13;5095886;27;45352;-75
2023/08/23 01:44:31;;;;;;;;;0.00;0.00;;;;;21.96;73.98;101797.63;5081980;27;45426;-74
2023/08/23 01:46:56;;;;;;;;;2.00;0.33;;;;;22.00;73.43;101826.94;5084713;27;46280;-74
2023/08/23 01:49:21;;;;;;;;;1.00;1.00;;;;;22.03;75.63;101820.44;5095901;27;45462;-74
2023/08/23 01:51:46;;;;;;;;;1.00;1.00;;;;;22.06;75.85;101821.03;5094825;27;45423;-74
2023/08/23 01:54:12;;;;;;;;;2.00;1.00;;;;;21.96;75.43;101797.63;5085798;27;45455;-74
2023/08/23 01:56:37;;;;;;;;;1.00;1.00;;;;;22.02;76.29;101813.34;5081877;28;55017;-74
2023/08/23 01:59:02;;;;;;;;;1.33;0.67;;;;;21.99;75.48;101814.41;5103292;27;54564;-74
2023/08/23 02:01:28;;;;;;;;;3.00;1.00;;;;;21.86;76.57;101794.78;5101692;27;45784;-73
2023/08/23 02:03:53;;;;;;;;;1.00;1.00;;;;;21.95;76.86;101809.41;5096092;27;45556;-73
2023/08/23 02:06:18;;;;;;;;;2.00;1.00;;;;;21.91;76.69;101803.41;5089516;27;45442;-74
2023/08/23 02:08:44;;;;;;;;;1.00;1.00;;;;;21.90;76.25;101799.00;5092035;27;50234;-74
2023/08/23 02:11:09;;;;;;;;;0.00;0.00;;;;;21.83;74.54;101790.50;5075312;27;45286;-74
2023/08/23 02:13:34;;;;;;;;;0.33;0.33;;;;;21.75;74.94;101784.88;5096456;27;45272;-74
2023/08/23 02:16:00;;;;;;;;;2.67;0.67;;;;;21.83;77.03;101795.03;5093695;27;45922;-74
2023/08/23 02:18:25;;;;;;;;;0.00;0.00;;;;;21.78;78.01;101786.47;5095948;27;52478;-74
2023/08/23 02:20:55;;;;;;;;;1.00;1.00;;;;;21.75;78.07;101784.88;5081959;27;45308;-74
2023/08/23 02:23:20;;;;;;;;;2.67;0.33;;;;;21.55;75.10;101755.09;5082340;27;45873;-74
2023/08/23 02:25:46;;;;;;;;;0.00;0.00;;;;;21.70;76.16;101787.06;5084164;27;45915;-74
2023/08/23 02:28:11;;;;;;;;;1.00;1.00;;;;;21.71;76.99;101790.63;5085204;27;45303;-74
2023/08/23 02:30:36;;;;;;;;;0.00;0.00;;;;;21.66;77.11;101790.97;5085333;27;45231;-74
2023/08/23 02:33:02;;;;;;;;;0.00;0.00;;;;;21.61;77.72;101777.00;5084707;27;45293;-74
2023/08/23 02:35:27;;;;;;;;;2.33;0.67;;;;;21.61;76.42;101790.47;5085230;27;46130;-75
2023/08/23 02:37:53;;;;;;;;;0.00;0.00;;;;;21.55;77.76;101774.81;5089416;27;48068;-73
2023/08/23 02:40:18;;;;;;;;;0.00;0.00;;;;;21.55;75.69;101793.66;5085415;28;45513;-74
2023/08/23 02:42:44;;;;;;;;;1.00;1.00;;;;;21.60;77.50;101804.03;5093053;27;45317;-73
2023/08/23 02:45:09;;;;;;;;;1.67;0.00;;;;;21.54;76.79;101797.31;5082935;27;45316;-73
2023/08/23 02:47:34;;;;;;;;;0.00;0.00;;;;;21.57;78.48;101797.06;5084949;27;45453;-74
2023/08/23 02:50:00;;;;;;;;;1.33;1.33;;;;;21.55;78.12;101798.16;5063646;27;45292;-74
2023/08/23 02:52:25;;;;;;;;;1.00;1.00;;;;;21.49;80.30;101794.13;5084813;27;55780;-74
2023/08/23 02:54:50;;;;;;;;;2.00;0.00;;;;;21.48;79.63;101800.47;5094486;27;46295;-74
2023/08/23 02:57:16;;;;;;;;;1.67;0.00;;;;;21.45;79.84;101799.84;5081319;27;49958;-73
2023/08/23 02:59:41;;;;;;;;;2.00;1.00;;;;;21.34;78.54;101781.81;5096330;27;45208;-74
2023/08/23 03:02:06;;;;;;;;;1.00;1.00;;;;;21.40;80.21;101793.97;5096439;27;45369;-74
2023/08/23 03:04:31;;;;;;;;;0.00;0.00;;;;;21.37;81.16;101792.34;5091315;27;45327;-73
2023/08/23 03:06:57;;;;;;;;;0.00;0.00;;;;;21.33;81.16;101782.81;5092882;27;45528;-73
2023/08/23 03:09:22;;;;;;;;;0.00;0.00;;;;;21.31;82.97;101795.50;5091206;27;45492;-74
2023/08/23 03:11:47;;;;;;;;;0.33;0.33;;;;;21.20;82.90;101785.56;5085461;27;45584;-74
2023/08/23 03:14:13;;;;;;;;;1.00;1.00;;;;;21.21;83.63;101795.38;5100106;27;45509;-74
2023/08/23 03:16:38;;;;;;;;;1.00;1.00;;;;;21.23;83.86;101806.03;5084395;27;45437;-74
2023/08/23 03:19:03;;;;;;;;;1.00;1.00;;;;;21.16;84.48;101797.56;5081131;27;45605;-74
2023/08/23 03:21:29;;;;;;;;;0.00;0.00;;;;;21.15;84.80;101805.72;5089274;27;46848;-74
2023/08/23 03:23:54;;;;;;;;;1.67;1.00;;;;;21.11;81.64;101797.03;5089195;27;45473;-74
2023/08/23 03:26:19;;;;;;;;;1.00;1.00;;;;;21.12;82.34;101792.50;5080763;27;45362;-74
2023/08/23 03:28:45;;;;;;;;;0.33;0.33;;;;;21.01;83.02;101768.22;5080625;27;45425;-73
2023/08/23 03:31:10;;;;;;;;;3.67;0.00;;;;;21.13;83.63;101786.16;5087430;27;45354;-74
2023/08/23 03:33:35;;;;;;;;;0.00;0.00;;;;;21.08;84.29;101780.22;5083010;27;45376;-74
2023/08/23 03:36:00;;;;;;;;;1.00;0.67;;;;;21.11;83.62;101780.03;5088825;27;48374;-73
2023/08/23 03:38:26;;;;;;;;;0.00;0.00;;;;;21.06;83.58;101780.34;5081403;27;46801;-74
2023/08/23 03:40:52;;;;;;;;;1.00;1.00;;;;;21.01;85.02;101770.91;5093705;27;45306;-74
2023/08/23 03:43:18;;;;;;;;;0.00;0.00;;;;;21.03;85.61;101771.66;5084932;27;46665;-74
2023/08/23 03:45:50;;;;;;;;;1.00;1.00;;;;;21.03;85.23;101771.66;5100943;27;45249;-74
2023/08/23 03:48:16;;;;;;;;;0.00;0.00;;;;;20.96;86.34;101776.63;5078478;28;46706;-73
2023/08/23 03:50:42;;;;;;;;;0.33;0.00;;;;;20.96;86.62;101776.63;5079654;27;45423;-74
2023/08/23 03:53:07;;;;;;;;;2.67;1.00;;;;;20.87;87.38;101771.09;5079403;27;46136;-73
2023/08/23 03:55:35;;;;;;;;;1.67;1.00;;;;;20.90;87.55;101781.63;5080409;27;45270;-74
2023/08/23 03:58:00;;;;;;;;;2.00;0.67;;;;;20.78;84.63;101778.00;5086541;27;45371;-73
2023/08/23 04:00:26;;;;;;;;;1.00;1.00;;;;;20.84;86.38;101791.00;5090417;27;45533;-73
2023/08/23 04:02:51;;;;;;;;;0.00;0.00;;;;;20.81;87.76;101790.38;5088279;27;45570;-74
2023/08/23 04:05:17;;;;;;;;;1.33;1.33;;;;;20.75;88.39;101787.16;5087167;27;45351;-74
2023/08/23 04:07:42;;;;;;;;;2.67;0.00;;;;;20.70;88.66;101786.66;5090975;27;45401;-73
2023/08/23 04:10:08;;;;;;;;;1.00;1.00;;;;;20.69;89.77;101794.81;5087279;27;45405;-73
2023/08/23 04:12:34;;;;;;;;;0.00;0.00;;;;;20.70;89.17;101802.78;5085616;27;45395;-73
2023/08/23 04:14:59;;;;;;;;;1.33;1.33;;;;;20.66;89.71;101795.03;5079476;27;45730;-74
2023/08/23 04:17:24;;;;;;;;;1.00;1.00;;;;;20.65;90.50;101798.69;5084308;27;47124;-74
2023/08/23 04:19:50;;;;;;;;;0.33;0.33;;;;;20.62;91.17;101802.47;5093406;27;45360;-73
2023/08/23 04:22:15;;;;;;;;;2.33;1.00;;;;;20.58;91.35;101792.91;5098532;27;47163;-74
2023/08/23 04:24:41;;;;;;;;;0.67;0.67;;;;;20.57;91.88;101793.03;5087046;27;45312;-73
2023/08/23 04:27:06;;;;;;;;;1.67;1.00;;;;;20.56;92.37;101791.31;5079911;27;45339;-73
2023/08/23 04:29:31;;;;;;;;;1.00;1.00;;;;;20.43;92.32;101774.38;5079283;27;45383;-74
2023/08/23 04:31:57;;;;;;;;;2.00;2.00;;;;;20.51;92.47;101791.66;5081801;27;45488;-74
2023/08/23 04:34:22;;;;;;;;;1.00;1.00;;;;;20.46;92.84;101793.81;5080822;27;45428;-73
2023/08/23 04:36:47;;;;;;;;;2.00;2.00;;;;;20.44;93.04;101786.84;5082492;27;45337;-74
2023/08/23 04:39:13;;;;;;;;;1.00;1.00;;;;;20.44;92.62;101786.84;5079151;27;49601;-74
2023/08/23 04:41:38;;;;;;;;;4.33;3.00;;;;;20.41;94.25;101784.38;5080337;27;45393;-74
2023/08/23 04:44:03;;;;;;;;;2.00;2.00;;;;;20.37;93.19;101781.06;5080209;27;45311;-74
2023/08/23 04:46:29;;;;;;;;;1.33;1.33;;;;;20.32;92.94;101782.38;5080622;27;45519;-73
2023/08/23 04:48:54;;;;;;;;;3.67;1.33;;;;;20.25;93.73;101774.69;5088454;27;45392;-73
2023/08/23 04:51:22;;;;;;;;;1.00;1.00;;;;;20.33;95.06;101794.81;5081399;27;46178;-74
2023/08/23 04:53:47;;;;;;;;;1.33;1.33;;;;;20.32;95.00;101791.25;5084672;27;45514;-73
2023/08/23 04:56:13;;;;;;;;;3.33;1.00;;;;;20.27;95.42;101785.38;5090374;27;45375;-74
2023/08/23 04:58:38;;;;;;;;;3.00;2.00;;;;;20.28;95.99;101795.16;5097934;27;45472;-74
2023/08/23 05:01:05;;;;;;;;;1.00;1.00;;;;;20.27;95.65;101796.97;5094824;27;46005;-73
2023/08/23 05:03:32;;;;;;;;;2.00;2.00;;;;;20.21;94.73;101800.06;5094350;27;45410;-73
2023/08/23 05:06:01;;;;;;;;;3.00;2.00;;;;;20.10;96.37;101766.88;5096719;27;45604;-73
2023/08/23 05:08:28;;;;;;;;;3.00;2.00;;;;;20.21;96.48;101783.97;5082769;27;45381;-73
2023/08/23 05:10:54;;;;;;;;;1.00;1.00;;;;;20.23;96.26;101795.44;5083078;27;45477;-73
2023/08/23 05:13:21;;;;;;;;;1.00;1.00;;;;;20.23;96.77;101798.13;5085198;27;45380;-73
2023/08/23 05:15:57;;;;;;;;;3.33;1.67;;;;;20.16;96.19;101794.16;5061480;27;45517;-74
2023/08/23 05:18:23;;;;;;;;;1.67;1.67;;;;;20.21;96.91;101794.72;5079501;28;45543;-74
2023/08/23 05:20:55;;;;;;;;;1.00;1.00;;;;;20.23;96.53;101802.63;5079457;27;45344;-74
2023/08/23 05:23:24;;;;;;;;;3.67;2.67;;;;;20.15;95.70;101781.72;5088576;27;45370;-74
2023/08/23 05:25:51;;;;;;;;;2.00;2.00;;;;;20.24;96.73;101799.84;5081468;27;45439;-74
2023/08/23 05:28:21;;;;;;;;;1.00;1.00;;;;;20.24;94.97;101793.63;5088984;27;45406;-74
2023/08/23 05:30:46;;;;;;;;;3.00;2.00;;;;;20.15;94.54;101779.03;5080454;27;45573;-74
2023/08/23 05:33:12;;;;;;;;;1.00;1.00;;;;;20.25;97.53;101798.88;5087925;27;45497;-74
2023/08/23 05:35:40;;;;;;;;;4.00;2.00;;;;;20.29;96.33;101802.22;5093671;27;45671;-73
2023/08/23 05:38:05;;;;;;;;;3.00;1.67;;;;;20.27;96.79;101799.66;5089149;27;45289;-74
2023/08/23 05:40:31;;;;;;;;;3.33;2.00;;;;;20.33;98.62;101811.78;5092074;27;45403;-74
2023/08/23 05:42:57;;;;;;;;;2.00;2.00;;;;;20.29;96.07;101804.09;5078678;27;45712;-74
2023/08/23 05:45:26;;;;;;;;;2.00;2.00;;;;;20.37;96.87;101815.97;5079745;27;45291;-74
2023/08/23 05:47:52;;;;;;;;;3.67;2.00;;;;;20.33;98.10;101802.88;5088313;27;45347;-74
2023/08/23 05:50:17;;;;;;;;;3.67;2.00;;;;;20.32;97.02;101791.25;5090321;27;45305;-74
2023/08/23 05:52:42;;;;;;;;;2.00;2.00;;;;;20.42;98.25;101810.28;5092568;27;55197;-73
2023/08/23 05:55:09;;;;;;;;;4.33;1.67;;;;;20.44;97.73;101805.66;5096709;27;45681;-74
2023/08/23 05:57:34;;;;;;;;;2.33;2.00;;;;;20.52;98.24;101805.94;5078073;27;45318;-73
2023/08/23 06:00:00;;;;;;;;;2.67;2.67;;;;;20.55;96.21;101801.19;5079475;27;45987;-74
2023/08/23 06:02:25;;;;;;;;;1.00;1.00;;;;;20.54;94.49;101782.50;5079431;27;45287;-74
2023/08/23 06:04:51;;;;;;;;;3.00;1.00;;;;;20.59;93.62;101788.41;5083565;27;45209;-74
2023/08/23 06:07:17;;;;;;;;;2.00;2.00;;;;;20.65;95.40;101793.31;5080739;27;45382;-73
2023/08/23 06:09:43;;;;;;;;;1.00;1.00;;;;;20.51;92.10;101769.31;5078729;27;47088;-73
2023/08/23 06:12:08;;;;;;;;;1.33;1.33;;;;;20.60;91.41;101784.75;5087443;27;45355;-74
2023/08/23 06:14:33;;;;;;;;;2.67;1.67;;;;;20.74;92.32;101798.03;5096738;27;45358;-73
2023/08/23 06:16:59;;;;;;;;;2.33;2.33;;;;;20.77;92.71;101800.50;5090732;27;45525;-74
2023/08/23 06:19:24;;;;;;;;;1.00;1.00;;;;;20.81;93.79;101793.91;5084531;27;46259;-73
2023/08/23 06:21:49;;;;;;;;;2.67;1.33;;;;;20.87;91.72;101800.69;5088839;27;49186;-74
2023/08/23 06:24:14;;;;;;;;;1.00;1.00;;;;;20.91;97.26;101802.19;5082739;27;45333;-74
2023/08/23 06:26:40;;;;;;;;;1.33;1.33;;;;;20.96;91.03;101800.84;5081592;28;45519;-73
2023/08/23 06:29:05;;;;;;;;;0.67;0.67;;;;;21.02;90.26;101804.91;5084035;27;45617;-74
2023/08/23 06:31:31;;;;;;;;;2.00;2.00;;;;;21.02;91.37;101805.75;5082145;27;45301;-73
2023/08/23 06:33:56;;;;;;;;;2.00;1.67;;;;;21.03;90.09;101804.81;5095171;27;45378;-74
2023/08/23 06:36:21;;;;;;;;;1.33;1.00;;;;;21.07;90.25;101811.63;5084742;27;48893;-74
2023/08/23 06:38:47;;;;;;;;;3.00;2.67;;;;;21.06;88.60;101809.94;5085481;27;46249;-73
2023/08/23 06:41:12;;;;;;;;;3.00;2.00;;;;;21.13;88.37;101811.25;5099918;27;45209;-75
2023/08/23 06:43:38;;;;;;;;;1.00;1.00;;;;;21.10;88.77;101798.03;5089271;27;45405;-74
2023/08/23 06:46:03;;;;;;;;;0.33;0.33;;;;;21.21;89.53;101802.56;5082101;27;45478;-74
2023/08/23 06:48:28;;;;;;;;;2.00;2.00;;;;;21.29;90.36;101802.84;5096568;27;48650;-74
2023/08/23 06:50:54;;;;;;;;;1.00;0.00;;;;;21.35;88.06;101806.91;5081881;27;45609;-74
2023/08/23 06:53:20;;;;;;;;;5.00;2.67;;;;;21.35;86.96;101788.94;5088235;27;45545;-74
2023/08/23 06:55:45;;;;;;;;;2.00;2.00;;;;;21.26;88.42;101778.88;5082064;27;45599;-74
2023/08/23 06:58:11;;;;;;;;;2.33;2.00;;;;;21.45;89.19;101807.94;5080763;27;46067;-74
2023/08/23 07:00:37;;;;;;;;;2.00;2.00;;;;;21.51;88.97;101815.53;5092902;27;45422;-74
2023/08/23 07:03:02;;;;;;;;;4.33;3.00;;;;;21.50;87.78;101814.66;5082066;27;45475;-74
2023/08/23 07:05:27;;;;;;;;;3.00;2.00;;;;;21.55;86.59;101823.25;5097583;27;45332;-74
2023/08/23 07:07:53;;;;;;;;;1.33;1.33;;;;;21.57;88.90;101833.91;5080712;27;45437;-74
2023/08/23 07:10:19;;;;;;;;;3.33;2.00;;;;;21.67;87.75;101825.00;5086168;27;45469;-74
2023/08/23 07:12:44;;;;;;;;;6.67;1.67;;;;;21.68;89.41;101824.03;5090008;27;45359;-75
2023/08/23 07:15:10;;;;;;;;;2.00;0.00;;;;;21.69;87.13;101814.94;5091772;27;45344;-75
2023/08/23 07:17:36;;;;;;;;;3.33;2.33;;;;;21.82;87.16;101825.66;5070299;28;46604;-75
2023/08/23 07:20:03;;;;;;;;;2.00;2.00;;;;;21.87;87.74;101804.59;5085791;27;45461;-75
2023/08/23 07:22:28;;;;;;;;;2.33;2.33;;;;;22.01;85.64;101817.00;5087396;27;45521;-75
2023/08/23 07:24:56;;;;;;;;;2.67;2.00;;;;;22.07;86.51;101803.91;5091389;27;45478;-75
2023/08/23 07:27:21;;;;;;;;;5.00;3.00;;;;;22.19;86.47;101812.84;5082984;27;46864;-75
2023/08/23 07:29:47;;;;;;;;;3.00;1.33;;;;;22.31;83.93;101807.34;5083957;27;45292;-75
2023/08/23 07:32:13;;;;;;;;;2.00;2.00;;;;;22.38;83.10;101799.63;5085525;27;45470;-75
2023/08/23 07:34:39;;;;;;;;;2.67;2.67;;;;;22.44;84.58;101807.22;5081148;27;45487;-74
2023/08/23 07:37:05;;;;;;;;;1.00;1.00;;;;;22.51;84.64;101807.59;5088191;27;45285;-75
2023/08/23 07:39:31;;;;;;;;;5.00;2.00;;;;;22.49;82.44;101799.59;5081294;27;45447;-75
2023/08/23 07:41:56;;;;;;;;;1.33;1.33;;;;;22.63;82.89;101818.22;5081279;27;45352;-75
2023/08/23 07:44:21;;;;;;;;;2.67;2.67;;;;;22.69;81.21;101817.75;5080479;27;45366;-74
2023/08/23 07:46:46;;;;;;;;;3.33;1.67;;;;;22.77;82.08;101828.75;5080741;27;45444;-74
2023/08/23 07:49:14;;;;;;;;;2.33;2.33;;;;;22.75;81.31;101810.97;5093924;27;45281;-75
2023/08/23 07:51:39;;;;;;;;;3.00;2.00;;;;;22.88;79.92;101817.06;5087752;27;45485;-75
2023/08/23 07:54:05;;;;;;;;;3.00;2.00;;;;;22.99;80.28;101827.84;5091492;27;45440;-75
2023/08/23 07:56:30;;;;;;;;;2.33;1.00;;;;;23.05;78.89;101821.94;5084360;27;46154;-75
2023/08/23 07:58:55;;;;;;;;;1.00;1.00;;;;;23.16;79.44;101821.91;5079826;27;45183;-75
2023/08/23 08:01:21;;;;;;;;;2.33;2.00;;;;;23.22;80.99;101812.44;5093041;27;45592;-75
2023/08/23 08:03:46;;;;;;;;;2.00;1.33;;;;;23.29;78.95;101809.09;5081213;27;45580;-74
2023/08/23 08:06:11;;;;;;;;;2.67;1.67;;;;;23.42;81.03;101816.19;5080474;27;53590;-75
2023/08/23 08:08:39;;;;;;;;;2.67;2.67;;;;;23.60;80.53;101825.41;5081678;27;45388;-75
2023/08/23 08:11:05;;;;;;;;;3.00;3.00;;;;;23.69;78.88;101814.66;5094872;27;45625;-75
2023/08/23 08:13:30;;;;;;;;;2.00;2.00;;;;;23.69;77.81;101790.34;5089919;27;45447;-75
2023/08/23 08:15:56;;;;;;;;;2.00;2.00;;;;;23.86;77.36;101814.06;5080334;27;46478;-72
2023/08/23 08:18:21;;;;;;;;;1.00;1.00;;;;;24.00;77.06;101812.88;5095711;27;45361;-75
2023/08/23 08:20:48;;;;;;;;;3.00;3.00;;;;;24.03;76.42;101820.69;5088950;27;45364;-75
2023/08/23 08:23:13;;;;;;;;;2.00;1.33;;;;;23.92;76.38;101785.63;5089269;27;45245;-75
2023/08/23 08:25:39;;;;;;;;;4.00;3.00;;;;;24.19;75.49;101817.53;5090975;27;45268;-75
2023/08/23 08:28:05;;;;;;;;;2.00;2.00;;;;;24.28;74.68;101814.00;5081304;27;45394;-75
2023/08/23 08:30:30;;;;;;;;;1.33;1.33;;;;;24.35;74.23;101807.06;5079608;27;45389;-75
2023/08/23 08:32:55;;;;;;;;;2.33;2.33;;;;;24.53;73.23;101815.41;5080356;27;45458;-75
2023/08/23 08:35:21;;;;;;;;;3.67;2.00;;;;;24.47;73.86;101792.47;5082800;27;46086;-75
2023/08/23 08:37:46;;;;;;;;;1.00;1.00;;;;;24.82;72.82;101828.03;5075456;27;45451;-75
2023/08/23 08:40:11;;;;;;;;;4.33;2.67;;;;;24.96;74.01;101820.53;5084843;27;45471;-72
2023/08/23 08:42:37;;;;;;;;;4.00;3.00;;;;;25.15;72.50;101828.66;5077940;27;45431;-75
2023/08/23 08:45:04;;;;;;;;;2.00;2.00;;;;;25.18;69.98;101820.25;5099316;27;46139;-75
2023/08/23 08:47:31;;;;;;;;;2.33;2.00;;;;;25.31;70.16;101816.25;5095291;27;45337;-75
2023/08/23 08:49:56;;;;;;;;;2.67;2.67;;;;;25.40;71.97;101825.38;5079368;28;45439;-75
2023/08/23 08:52:26;;;;;;;;;5.33;3.00;;;;;25.44;69.31;101820.53;5082455;27;45372;-75
2023/08/23 08:54:53;;;;;;;;;4.00;4.00;;;;;25.50;70.65;101812.72;5089297;27;46567;-75
2023/08/23 08:57:19;;;;;;;;;2.33;2.33;;;;;25.66;68.88;101823.81;5086799;27;45423;-75
2023/08/23 08:59:45;;;;;;;;;2.00;2.00;;;;;25.81;69.01;101832.38;5078925;27;45672;-75
2023/08/23 09:02:15;;;;;;;;;3.33;2.00;;;;;25.83;67.08;101830.34;5080492;27;45358;-74
2023/08/23 09:04:45;;;;;;;;;6.00;4.00;;;;;26.01;67.89;101838.59;5086936;27;45268;-73
2023/08/23 09:07:11;;;;;;;;;2.67;2.67;;;;;25.98;68.75;101793.63;5079538;27;45396;-72
2023/08/23 09:09:36;;;;;;;;;4.00;4.00;;;;;26.26;66.88;101833.41;5079288;28;45364;-73
2023/08/23 09:12:02;;;;;;;;;7.00;5.00;;;;;26.34;65.82;101827.25;5088066;27;45494;-73
2023/08/23 09:14:28;;;;;;;;;4.00;4.00;;;;;26.53;67.26;101837.13;5096464;27;46280;-74
2023/08/23 09:16:53;;;;;;;;;5.00;3.67;;;;;26.56;64.34;101826.84;5085366;27;45593;-73
2023/08/23 09:19:21;;;;;;;;;5.67;4.00;;;;;26.61;65.28;101810.09;5075594;27;45315;-73
2023/08/23 09:21:50;;;;;;;;;5.00;5.00;;;;;26.67;64.31;101806.78;5089302;27;45318;-73
2023/08/23 09:24:17;;;;;;;;;2.33;1.67;;;;;26.88;64.54;101821.81;5080774;27;45443;-72
2023/08/23 09:26:44;;;;;;;;;5.00;3.00;;;;;26.87;63.28;101820.09;5093461;27;45213;-73
2023/08/23 09:29:09;;;;;;;;;7.33;4.00;;;;;26.92;63.48;101814.22;5085753;27;45439;-73
2023/08/23 09:31:34;;;;;;;;;5.00;3.00;;;;;27.01;61.31;101815.16;5085143;27;45460;-73
2023/08/23 09:34:01;;;;;;;;;4.00;3.00;;;;;27.08;61.28;101813.53;5087435;27;46470;-73
2023/08/23 09:36:27;;;;;;;;;4.67;3.00;;;;;27.23;64.82;101811.97;5086590;27;45443;-73
2023/08/23 09:38:53;;;;;;;;;3.00;2.67;;;;;27.36;63.26;101798.84;5102388;27;45525;-73
2023/08/23 09:41:19;;;;;;;;;4.00;2.33;;;;;27.56;63.39;101814.00;5088792;27;45376;-72
2023/08/23 09:43:48;;;;;;;;;3.33;3.33;;;;;27.60;61.62;101818.09;5092741;27;45352;-73
2023/08/23 09:46:15;;;;;;;;;3.00;3.00;;;;;27.66;59.84;101822.91;5080811;27;45415;-73
2023/08/23 09:48:41;;;;;;;;;2.00;2.00;;;;;27.70;60.71;101820.72;5080377;27;45282;-73
2023/08/23 09:51:09;;;;;;;;;3.00;3.00;;;;;27.82;60.06;101822.16;5082308;28;45280;-73
2023/08/23 09:53:40;;;;;;;;;3.00;3.00;;;;;27.93;61.97;101830.06;5089393;27;45325;-73
2023/08/23 09:56:06;;;;;;;;;2.67;2.67;;;;;27.99;60.51;101814.97;5103056;27;45287;-73
2023/08/23 09:58:32;;;;;;;;;3.33;3.33;;;;;28.03;61.01;101798.19;5101533;27;45392;-73
2023/08/23 10:00:57;;;;;;;;;3.00;3.00;;;;;28.23;59.71;101807.84;5096599;27;45382;-74
2023/08/23 10:03:23;;;;;;;;;4.67;4.67;;;;;28.28;60.97;101789.16;5098623;27;45309;-73
2023/08/23 10:05:50;;;;;;;;;6.33;3.00;;;;;28.29;57.54;101779.97;5081849;27;45330;-73
2023/08/23 10:08:16;;;;;;;;;5.33;4.00;;;;;28.32;58.42;101790.53;5086806;27;45358;-74
2023/08/23 10:10:43;;;;;;;;;4.00;3.00;;;;;28.33;58.99;101794.97;5102579;27;45363;-73
2023/08/23 10:13:09;;;;;;;;;6.67;3.00;;;;;28.32;61.85;101793.25;5101642;27;46125;-74
2023/08/23 10:15:38;;;;;;;;;2.67;2.67;;;;;28.34;61.34;101793.06;5083954;27;45367;-73
2023/08/23 10:18:08;;;;;;;;;4.67;4.00;;;;;28.33;60.95;101784.09;5082614;27;45375;-74
2023/08/23 10:20:36;;;;;;;;;3.33;2.67;;;;;28.22;59.84;101756.28;5081583;27;45243;-73
2023/08/23 10:23:11;;;;;;;;;3.00;3.00;;;;;28.30;59.48;101773.53;5095012;27;45300;-73
2023/08/23 10:25:37;;;;;;;;;3.00;3.00;;;;;28.33;61.13;101775.91;5080457;27;45331;-74
2023/08/23 10:28:04;;;;;;;;;6.00;4.00;;;;;28.43;61.75;101776.66;5083103;27;45218;-73
2023/08/23 10:30:30;;;;;;;;;4.67;4.00;;;;;28.52;59.30;101769.34;5095787;27;45484;-73
2023/08/23 10:33:16;;;;;;;;;4.00;3.00;;;;;28.62;59.43;101780.09;5088059;27;45308;-74
2023/08/23 10:35:44;;;;;;;;;3.00;3.00;;;;;28.67;57.40;101767.72;5072417;27;45958;-72
2023/08/23 10:38:10;;;;;;;;;4.00;3.00;;;;;28.77;58.88;101768.41;5099364;27;45233;-73
2023/08/23 10:40:38;;;;;;;;;4.00;4.00;;;;;28.78;58.20;101772.00;5082448;27;45344;-73
2023/08/23 10:43:13;;;;;;;;;6.67;4.00;;;;;28.73;60.68;101755.31;5080821;27;46442;-73
2023/08/23 10:45:48;;;;;;;;;4.00;2.00;;;;;28.86;58.70;101769.31;5081620;28;45356;-73
2023/08/23 10:48:15;;;;;;;;;3.33;3.33;;;;;28.84;57.27;101765.88;5077790;28;45448;-73
2023/08/23 10:50:40;;;;;;;;;3.67;3.67;;;;;28.95;60.61;101776.47;5067541;28;45719;-74
2023/08/23 10:53:06;;;;;;;;;5.33;4.00;;;;;28.91;57.62;101753.28;5094830;27;45343;-74
2023/08/23 10:55:31;;;;;;;;;7.00;5.00;;;;;29.01;58.33;101745.81;5081458;27;45297;-74
2023/08/23 10:57:57;;;;;;;;;4.67;3.67;;;;;29.20;59.16;101753.66;5079523;27;45289;-74
2023/08/23 11:00:22;;;;;;;;;4.00;4.00;;;;;29.32;58.73;101757.75;5090292;27;45511;-74
2023/08/23 11:02:47;;;;;;;;;4.00;4.00;;;;;29.35;57.44;101751.97;5093786;27;45382;-74
2023/08/23 11:05:14;;;;;;;;;4.67;3.00;;;;;29.60;57.00;101769.16;5081191;28;45292;-73
2023/08/23 11:07:39;;;;;;;;;3.33;2.33;;;;;29.64;55.46;101747.88;5088242;27;45542;-74
2023/08/23 11:10:08;;;;;;;;;5.67;4.33;;;;;29.76;57.63;101746.47;5081364;27;45594;-73
2023/08/23 11:12:33;;;;;;;;;4.67;4.67;;;;;29.74;56.62;101729.44;5083019;27;45428;-74
2023/08/23 11:14:58;;;;;;;;;4.00;4.00;;;;;30.00;57.64;101748.31;5100932;27;45280;-74
2023/08/23 11:17:24;;;;;;;;;3.00;3.00;;;;;30.11;57.21;101734.25;5087584;27;47745;-74
2023/08/23 11:19:50;;;;;;;;;4.33;4.33;;;;;30.28;54.90;101739.50;5082740;27;45637;-74